sensor_id;sensor_type;location;lat;lon;timestamp;pressure;altitude;pressure_sealevel;temperature;humidity
20656;BME280;10487;53.320;8.672;2023-07-29T00:02:43;100432.84;;;16.91;60.76
20656;BME280;10487;53.320;8.672;2023-07-29T00:05:47;100433.84;;;16.90;60.91
20656;BME280;10487;53.320;8.672;2023-07-29T00:08:49;100426.09;;;16.87;61.06
20656;BME280;10487;53.320;8.672;2023-07-29T00:11:51;100423.69;;;16.84;60.84
20656;BME280;10487;53.320;8.672;2023-07-29T00:14:52;100422.63;;;16.77;60.68
20656;BME280;10487;53.320;8.672;2023-07-29T00:17:54;100414.50;;;16.69;61.17
20656;BME280;10487;53.320;8.672;2023-07-29T00:20:56;100408.06;;;16.62;61.20
20656;BME280;10487;53.320;8.672;2023-07-29T00:23:59;100407.72;;;16.57;61.05
20656;BME280;10487;53.320;8.672;2023-07-29T00:27:02;100410.88;;;16.53;61.16
20656;BME280;10487;53.320;8.672;2023-07-29T00:30:05;100414.06;;;16.48;61.17
20656;BME280;10487;53.320;8.672;2023-07-29T00:33:07;100416.03;;;16.46;61.30
20656;BME280;10487;53.320;8.672;2023-07-29T00:36:09;100407.13;;;16.46;61.24
20656;BME280;10487;53.320;8.672;2023-07-29T00:39:11;100400.59;;;16.48;61.50
20656;BME280;10487;53.320;8.672;2023-07-29T00:42:12;100396.88;;;16.49;61.27
20656;BME280;10487;53.320;8.672;2023-07-29T00:45:14;100391.50;;;16.49;61.38
20656;BME280;10487;53.320;8.672;2023-07-29T00:48:16;100388.66;;;16.51;61.54
20656;BME280;10487;53.320;8.672;2023-07-29T00:51:18;100397.56;;;16.51;61.18
20656;BME280;10487;53.320;8.672;2023-07-29T00:54:19;100388.50;;;16.52;61.52
20656;BME280;10487;53.320;8.672;2023-07-29T00:57:21;100392.72;;;16.55;61.33
20656;BME280;10487;53.320;8.672;2023-07-29T01:00:23;100397.09;;;16.56;61.67
20656;BME280;10487;53.320;8.672;2023-07-29T01:03:26;100392.53;;;16.56;61.26
20656;BME280;10487;53.320;8.672;2023-07-29T01:06:45;100395.22;;;16.56;61.62
20656;BME280;10487;53.320;8.672;2023-07-29T01:16:23;100398.78;;;16.57;61.53
20656;BME280;10487;53.320;8.672;2023-07-29T01:22:59;100387.16;;;16.56;61.51
20656;BME280;10487;53.320;8.672;2023-07-29T01:26:02;100394.56;;;16.54;61.31
20656;BME280;10487;53.320;8.672;2023-07-29T01:29:04;100393.69;;;16.54;61.68
20656;BME280;10487;53.320;8.672;2023-07-29T01:32:31;100390.88;;;16.55;61.69
20656;BME280;10487;53.320;8.672;2023-07-29T01:35:50;100387.31;;;16.55;61.35
20656;BME280;10487;53.320;8.672;2023-07-29T01:38:54;100390.00;;;16.55;61.68
20656;BME280;10487;53.320;8.672;2023-07-29T01:41:57;100381.94;;;16.55;61.70
20656;BME280;10487;53.320;8.672;2023-07-29T01:45:01;100388.16;;;16.55;61.66
20656;BME280;10487;53.320;8.672;2023-07-29T01:48:03;100376.38;;;16.56;61.40
20656;BME280;10487;53.320;8.672;2023-07-29T01:51:05;100368.16;;;16.58;61.88
20656;BME280;10487;53.320;8.672;2023-07-29T01:54:07;100369.00;;;16.58;61.92
20656;BME280;10487;53.320;8.672;2023-07-29T01:57:09;100370.69;;;16.59;61.75
20656;BME280;10487;53.320;8.672;2023-07-29T02:00:11;100364.31;;;16.60;61.66
20656;BME280;10487;53.320;8.672;2023-07-29T02:03:13;100367.13;;;16.59;61.57
20656;BME280;10487;53.320;8.672;2023-07-29T02:06:15;100369.00;;;16.58;61.59
20656;BME280;10487;53.320;8.672;2023-07-29T02:09:17;100371.69;;;16.58;61.51
20656;BME280;10487;53.320;8.672;2023-07-29T02:12:18;100371.69;;;16.58;61.67
20656;BME280;10487;53.320;8.672;2023-07-29T02:15:20;100376.25;;;16.58;61.78
20656;BME280;10487;53.320;8.672;2023-07-29T02:18:22;100367.31;;;16.57;61.65
20656;BME280;10487;53.320;8.672;2023-07-29T02:21:23;100361.91;;;16.57;61.87
20656;BME280;10487;53.320;8.672;2023-07-29T02:24:25;100362.91;;;16.56;61.73
20656;BME280;10487;53.320;8.672;2023-07-29T02:27:27;100359.53;;;16.54;62.01
20656;BME280;10487;53.320;8.672;2023-07-29T02:30:29;100358.56;;;16.55;61.83
20656;BME280;10487;53.320;8.672;2023-07-29T02:33:31;100351.47;;;16.54;61.83
20656;BME280;10487;53.320;8.672;2023-07-29T02:36:33;100351.47;;;16.54;61.85
20656;BME280;10487;53.320;8.672;2023-07-29T02:39:35;100348.78;;;16.54;62.05
20656;BME280;10487;53.320;8.672;2023-07-29T02:42:37;100352.50;;;16.53;61.80
20656;BME280;10487;53.320;8.672;2023-07-29T02:45:39;100349.09;;;16.51;61.98
20656;BME280;10487;53.320;8.672;2023-07-29T02:48:42;100350.25;;;16.49;61.98
20656;BME280;10487;53.320;8.672;2023-07-29T02:51:44;100353.13;;;16.47;61.83
20656;BME280;10487;53.320;8.672;2023-07-29T02:54:45;100356.13;;;16.44;61.94
20656;BME280;10487;53.320;8.672;2023-07-29T02:57:47;100357.28;;;16.42;61.87
20656;BME280;10487;53.320;8.672;2023-07-29T03:00:49;100351.41;;;16.38;61.96
20656;BME280;10487;53.320;8.672;2023-07-29T03:03:51;100349.00;;;16.35;62.07
20656;BME280;10487;53.320;8.672;2023-07-29T03:06:53;100346.63;;;16.32;62.08
20656;BME280;10487;53.320;8.672;2023-07-29T03:09:56;100347.78;;;16.29;61.92
20656;BME280;10487;53.320;8.672;2023-07-29T03:12:57;100346.44;;;16.25;61.91
20656;BME280;10487;53.320;8.672;2023-07-29T03:16:08;100351.97;;;16.24;62.03
20656;BME280;10487;53.320;8.672;2023-07-29T03:19:11;100358.50;;;16.21;61.92
20656;BME280;10487;53.320;8.672;2023-07-29T03:22:13;100361.38;;;16.20;61.86
20656;BME280;10487;53.320;8.672;2023-07-29T03:25:15;100358.00;;;16.18;61.94
20656;BME280;10487;53.320;8.672;2023-07-29T03:28:17;100353.59;;;16.17;62.16
20656;BME280;10487;53.320;8.672;2023-07-29T03:31:19;100353.78;;;16.15;62.17
20656;BME280;10487;53.320;8.672;2023-07-29T03:34:20;100348.69;;;16.12;61.98
20656;BME280;10487;53.320;8.672;2023-07-29T03:37:22;100356.09;;;16.10;62.27
20656;BME280;10487;53.320;8.672;2023-07-29T03:40:24;100352.53;;;16.10;61.98
20656;BME280;10487;53.320;8.672;2023-07-29T03:43:26;100349.00;;;16.09;62.35
20656;BME280;10487;53.320;8.672;2023-07-29T03:46:27;100351.69;;;16.09;62.20
20656;BME280;10487;53.320;8.672;2023-07-29T03:49:29;100365.16;;;16.09;62.15
20656;BME280;10487;53.320;8.672;2023-07-29T03:52:31;100366.19;;;16.08;62.28
20656;BME280;10487;53.320;8.672;2023-07-29T03:55:32;100365.31;;;16.08;62.22
20656;BME280;10487;53.320;8.672;2023-07-29T03:58:34;100358.09;;;16.08;61.98
20656;BME280;10487;53.320;8.672;2023-07-29T04:01:36;100349.19;;;16.08;62.40
20656;BME280;10487;53.320;8.672;2023-07-29T04:04:38;100361.09;;;16.05;62.31
20656;BME280;10487;53.320;8.672;2023-07-29T04:07:40;100357.53;;;16.05;62.38
20656;BME280;10487;53.320;8.672;2023-07-29T04:10:42;100342.38;;;16.04;62.43
20656;BME280;10487;53.320;8.672;2023-07-29T04:13:44;100343.94;;;16.06;62.09
20656;BME280;10487;53.320;8.672;2023-07-29T04:16:45;100335.03;;;16.06;62.48
20656;BME280;10487;53.320;8.672;2023-07-29T04:19:50;100337.72;;;16.06;62.39
20656;BME280;10487;53.320;8.672;2023-07-29T04:22:52;100338.09;;;16.11;62.29
20656;BME280;10487;53.320;8.672;2023-07-29T04:25:53;100340.16;;;16.17;62.50
20656;BME280;10487;53.320;8.672;2023-07-29T04:28:55;100330.78;;;16.21;62.34
20656;BME280;10487;53.320;8.672;2023-07-29T04:31:57;100325.75;;;16.26;62.49
20656;BME280;10487;53.320;8.672;2023-07-29T04:34:59;100341.97;;;16.42;62.74
20656;BME280;10487;53.320;8.672;2023-07-29T04:38:01;100337.50;;;16.59;62.62
20656;BME280;10487;53.320;8.672;2023-07-29T04:41:03;100336.03;;;16.64;62.59
20656;BME280;10487;53.320;8.672;2023-07-29T04:44:05;100340.25;;;16.67;62.52
20656;BME280;10487;53.320;8.672;2023-07-29T04:47:06;100341.94;;;16.68;62.28
20656;BME280;10487;53.320;8.672;2023-07-29T04:50:08;100340.06;;;16.68;62.59
20656;BME280;10487;53.320;8.672;2023-07-29T04:53:10;100322.25;;;16.67;62.68
20656;BME280;10487;53.320;8.672;2023-07-29T04:56:12;100322.91;;;16.69;62.47
20656;BME280;10487;53.320;8.672;2023-07-29T04:59:17;100321.94;;;16.70;62.79
20656;BME280;10487;53.320;8.672;2023-07-29T05:02:19;100328.00;;;16.72;62.61
20656;BME280;10487;53.320;8.672;2023-07-29T05:05:22;100326.97;;;16.73;62.27
20656;BME280;10487;53.320;8.672;2023-07-29T05:08:25;100321.56;;;16.73;62.47
20656;BME280;10487;53.320;8.672;2023-07-29T05:11:27;100315.38;;;16.73;62.42
20656;BME280;10487;53.320;8.672;2023-07-29T05:14:29;100309.50;;;16.77;62.57
20656;BME280;10487;53.320;8.672;2023-07-29T05:17:30;100311.16;;;16.78;62.32
20656;BME280;10487;53.320;8.672;2023-07-29T05:20:32;100302.59;;;16.83;62.43
20656;BME280;10487;53.320;8.672;2023-07-29T05:23:34;100298.59;;;16.87;62.60
20656;BME280;10487;53.320;8.672;2023-07-29T05:26:35;100299.13;;;16.90;62.53
20656;BME280;10487;53.320;8.672;2023-07-29T05:29:37;100298.78;;;16.93;62.32
20656;BME280;10487;53.320;8.672;2023-07-29T05:32:39;100292.06;;;16.98;62.54
20656;BME280;10487;53.320;8.672;2023-07-29T05:35:41;100285.66;;;16.99;62.49
20656;BME280;10487;53.320;8.672;2023-07-29T05:38:43;100291.56;;;17.02;62.46
20656;BME280;10487;53.320;8.672;2023-07-29T05:41:44;100290.41;;;17.05;62.50
20656;BME280;10487;53.320;8.672;2023-07-29T05:44:47;100293.75;;;17.07;62.72
20656;BME280;10487;53.320;8.672;2023-07-29T05:47:48;100304.22;;;17.10;62.62
20656;BME280;10487;53.320;8.672;2023-07-29T05:50:51;100309.28;;;17.13;62.58
20656;BME280;10487;53.320;8.672;2023-07-29T05:53:52;100312.66;;;17.15;62.67
20656;BME280;10487;53.320;8.672;2023-07-29T05:56:54;100303.22;;;17.19;62.47
20656;BME280;10487;53.320;8.672;2023-07-29T05:59:56;100307.59;;;17.20;62.41
20656;BME280;10487;53.320;8.672;2023-07-29T06:02:57;100306.09;;;17.17;62.82
20656;BME280;10487;53.320;8.672;2023-07-29T06:05:59;100311.47;;;17.17;62.65
20656;BME280;10487;53.320;8.672;2023-07-29T06:09:01;100309.78;;;17.16;62.51
20656;BME280;10487;53.320;8.672;2023-07-29T06:12:03;100299.84;;;17.17;62.57
20656;BME280;10487;53.320;8.672;2023-07-29T06:15:05;100307.75;;;17.18;62.71
20656;BME280;10487;53.320;8.672;2023-07-29T06:18:07;100304.25;;;17.18;62.86
20656;BME280;10487;53.320;8.672;2023-07-29T06:21:09;100311.31;;;17.19;62.78
20656;BME280;10487;53.320;8.672;2023-07-29T06:24:13;100312.16;;;17.19;62.48
20656;BME280;10487;53.320;8.672;2023-07-29T06:27:15;100317.03;;;17.24;62.85
20656;BME280;10487;53.320;8.672;2023-07-29T06:30:17;100317.72;;;17.26;62.53
20656;BME280;10487;53.320;8.672;2023-07-29T06:33:19;100323.78;;;17.28;62.71
20656;BME280;10487;53.320;8.672;2023-07-29T06:36:21;100319.22;;;17.28;62.88
20656;BME280;10487;53.320;8.672;2023-07-29T06:39:22;100327.31;;;17.28;62.55
20656;BME280;10487;53.320;8.672;2023-07-29T06:42:24;100336.25;;;17.29;62.55
20656;BME280;10487;53.320;8.672;2023-07-29T06:45:26;100336.44;;;17.35;62.63
20656;BME280;10487;53.320;8.672;2023-07-29T06:48:28;100330.72;;;17.38;62.73
20656;BME280;10487;53.320;8.672;2023-07-29T06:51:30;100331.56;;;17.39;62.89
20656;BME280;10487;53.320;8.672;2023-07-29T06:54:34;100329.38;;;17.42;62.90
20656;BME280;10487;53.320;8.672;2023-07-29T06:57:35;100324.66;;;17.44;62.65
20656;BME280;10487;53.320;8.672;2023-07-29T07:00:37;100320.13;;;17.45;62.73
20656;BME280;10487;53.320;8.672;2023-07-29T07:03:39;100308.16;;;17.47;62.83
20656;BME280;10487;53.320;8.672;2023-07-29T07:06:41;100312.50;;;17.48;62.70
20656;BME280;10487;53.320;8.672;2023-07-29T07:09:42;100320.47;;;17.50;62.76
20656;BME280;10487;53.320;8.672;2023-07-29T07:12:44;100322.44;;;17.48;62.83
20656;BME280;10487;53.320;8.672;2023-07-29T07:15:46;100326.53;;;17.52;62.83
20656;BME280;10487;53.320;8.672;2023-07-29T07:18:47;100334.09;;;17.56;62.86
20656;BME280;10487;53.320;8.672;2023-07-29T07:21:49;100326.38;;;17.62;62.55
20656;BME280;10487;53.320;8.672;2023-07-29T07:24:51;100327.72;;;17.66;62.71
20656;BME280;10487;53.320;8.672;2023-07-29T07:27:53;100324.50;;;17.70;62.70
20656;BME280;10487;53.320;8.672;2023-07-29T07:30:54;100340.03;;;17.76;62.46
20656;BME280;10487;53.320;8.672;2023-07-29T07:33:57;100334.13;;;17.81;62.46
20656;BME280;10487;53.320;8.672;2023-07-29T07:36:59;100337.84;;;17.88;62.64
20656;BME280;10487;53.320;8.672;2023-07-29T07:40:02;100333.13;;;17.90;62.42
20656;BME280;10487;53.320;8.672;2023-07-29T07:43:03;100335.84;;;17.90;62.30
20656;BME280;10487;53.320;8.672;2023-07-29T07:46:05;100342.41;;;17.87;62.24
20656;BME280;10487;53.320;8.672;2023-07-29T07:49:07;100348.16;;;17.84;62.30
20656;BME280;10487;53.320;8.672;2023-07-29T07:52:09;100334.13;;;17.81;62.19
20656;BME280;10487;53.320;8.672;2023-07-29T07:55:10;100342.56;;;17.78;62.38
20656;BME280;10487;53.320;8.672;2023-07-29T07:58:12;100348.81;;;17.78;62.24
20656;BME280;10487;53.320;8.672;2023-07-29T08:01:14;100341.75;;;17.77;62.26
20656;BME280;10487;53.320;8.672;2023-07-29T08:04:16;100343.75;;;17.75;62.53
20656;BME280;10487;53.320;8.672;2023-07-29T08:07:18;100349.13;;;17.75;62.28
20656;BME280;10487;53.320;8.672;2023-07-29T08:10:20;100348.13;;;17.76;62.22
20656;BME280;10487;53.320;8.672;2023-07-29T08:13:23;100343.75;;;17.75;62.54
20656;BME280;10487;53.320;8.672;2023-07-29T08:16:24;100350.16;;;17.74;62.29
20656;BME280;10487;53.320;8.672;2023-07-29T08:19:26;100341.56;;;17.71;62.48
20656;BME280;10487;53.320;8.672;2023-07-29T08:22:28;100348.78;;;17.70;62.42
20656;BME280;10487;53.320;8.672;2023-07-29T08:25:30;100341.06;;;17.67;62.27
20656;BME280;10487;53.320;8.672;2023-07-29T08:28:36;100335.50;;;17.69;62.48
20656;BME280;10487;53.320;8.672;2023-07-29T08:31:38;100330.28;;;17.67;62.36
20656;BME280;10487;53.320;8.672;2023-07-29T08:34:40;100325.53;;;17.69;62.23
20656;BME280;10487;53.320;8.672;2023-07-29T08:37:42;100333.63;;;17.69;62.45
20656;BME280;10487;53.320;8.672;2023-07-29T08:44:20;100345.75;;;17.73;62.33
20656;BME280;10487;53.320;8.672;2023-07-29T08:47:24;100343.91;;;17.74;62.34
20656;BME280;10487;53.320;8.672;2023-07-29T08:50:26;100339.19;;;17.76;62.20
20656;BME280;10487;53.320;8.672;2023-07-29T08:53:28;100357.75;;;17.79;62.27
20656;BME280;10487;53.320;8.672;2023-07-29T08:56:30;100358.59;;;17.87;62.18
20656;BME280;10487;53.320;8.672;2023-07-29T08:59:33;100364.63;;;17.97;61.95
20656;BME280;10487;53.320;8.672;2023-07-29T09:02:34;100348.63;;;18.04;62.03
20656;BME280;10487;53.320;8.672;2023-07-29T09:05:36;100341.53;;;18.11;62.15
20656;BME280;10487;53.320;8.672;2023-07-29T09:08:38;100345.41;;;18.16;62.11
20656;BME280;10487;53.320;8.672;2023-07-29T09:11:40;100334.94;;;18.22;61.70
20656;BME280;10487;53.320;8.672;2023-07-29T09:14:42;100334.56;;;18.25;61.59
20656;BME280;10487;53.320;8.672;2023-07-29T09:17:44;100332.03;;;18.31;61.64
20656;BME280;10487;53.320;8.672;2023-07-29T09:20:47;100331.22;;;18.39;61.46
20656;BME280;10487;53.320;8.672;2023-07-29T09:23:50;100340.66;;;18.43;61.65
20656;BME280;10487;53.320;8.672;2023-07-29T09:26:52;100340.97;;;18.48;61.33
20656;BME280;10487;53.320;8.672;2023-07-29T09:29:56;100346.69;;;18.53;61.44
20656;BME280;10487;53.320;8.672;2023-07-29T09:32:58;100348.53;;;18.60;61.50
20656;BME280;10487;53.320;8.672;2023-07-29T09:36:00;100349.50;;;18.67;61.39
20656;BME280;10487;53.320;8.672;2023-07-29T09:39:02;100339.03;;;18.72;61.39
20656;BME280;10487;53.320;8.672;2023-07-29T09:42:05;100353.03;;;18.76;61.63
20656;BME280;10487;53.320;8.672;2023-07-29T09:45:07;100347.44;;;18.77;61.21
20656;BME280;10487;53.320;8.672;2023-07-29T09:48:09;100333.41;;;18.82;61.20
20656;BME280;10487;53.320;8.672;2023-07-29T09:51:14;100336.06;;;18.90;61.38
20656;BME280;10487;53.320;8.672;2023-07-29T09:54:16;100339.75;;;18.97;61.16
20656;BME280;10487;53.320;8.672;2023-07-29T09:57:18;100325.53;;;19.03;61.16
20656;BME280;10487;53.320;8.672;2023-07-29T10:00:21;100326.34;;;19.12;61.34
20656;BME280;10487;53.320;8.672;2023-07-29T10:03:23;100328.00;;;19.21;61.12
20656;BME280;10487;53.320;8.672;2023-07-29T10:06:26;100321.84;;;19.27;61.23
20656;BME280;10487;53.320;8.672;2023-07-29T10:09:28;100322.81;;;19.34;60.82
20656;BME280;10487;53.320;8.672;2023-07-29T10:12:31;100323.25;;;19.45;61.03
20656;BME280;10487;53.320;8.672;2023-07-29T10:15:33;100320.78;;;19.59;60.76
20656;BME280;10487;53.320;8.672;2023-07-29T10:18:35;100320.66;;;19.75;60.71
20656;BME280;10487;53.320;8.672;2023-07-29T10:21:38;100309.88;;;19.89;60.65
20656;BME280;10487;53.320;8.672;2023-07-29T10:24:42;100310.56;;;20.06;60.86
20656;BME280;10487;53.320;8.672;2023-07-29T10:27:52;100314.69;;;20.17;60.51
20656;BME280;10487;53.320;8.672;2023-07-29T10:30:56;100322.38;;;20.28;60.53
20656;BME280;10487;53.320;8.672;2023-07-29T10:33:58;100322.09;;;20.37;60.33
20656;BME280;10487;53.320;8.672;2023-07-29T10:37:01;100310.81;;;20.48;60.46
20656;BME280;10487;53.320;8.672;2023-07-29T10:40:06;100314.34;;;20.63;60.36
20656;BME280;10487;53.320;8.672;2023-07-29T10:43:12;100319.97;;;20.77;60.01
20656;BME280;10487;53.320;8.672;2023-07-29T10:46:23;100318.09;;;20.77;59.93
20656;BME280;10487;53.320;8.672;2023-07-29T10:49:24;100314.25;;;20.71;59.78
20656;BME280;10487;53.320;8.672;2023-07-29T10:55:37;100307.53;;;20.82;59.92
20656;BME280;10487;53.320;8.672;2023-07-29T10:58:43;100307.50;;;20.97;59.73
20656;BME280;10487;53.320;8.672;2023-07-29T11:01:54;100308.78;;;21.01;59.75
20656;BME280;10487;53.320;8.672;2023-07-29T11:04:56;100310.38;;;20.95;59.33
20656;BME280;10487;53.320;8.672;2023-07-29T11:07:58;100318.22;;;20.90;59.48
20656;BME280;10487;53.320;8.672;2023-07-29T11:11:17;100327.84;;;20.93;59.55
20656;BME280;10487;53.320;8.672;2023-07-29T11:14:19;100320.56;;;20.93;59.47
20656;BME280;10487;53.320;8.672;2023-07-29T11:17:20;100319.94;;;20.91;59.37
20656;BME280;10487;53.320;8.672;2023-07-29T11:20:29;100321.03;;;20.97;59.41
20656;BME280;10487;53.320;8.672;2023-07-29T11:23:35;100324.19;;;21.00;59.29
20656;BME280;10487;53.320;8.672;2023-07-29T11:26:46;100334.09;;;21.08;59.07
20656;BME280;10487;53.320;8.672;2023-07-29T11:29:48;100317.31;;;21.12;59.38
20656;BME280;10487;53.320;8.672;2023-07-29T11:32:50;100324.88;;;21.17;59.15
20656;BME280;10487;53.320;8.672;2023-07-29T11:35:52;100332.09;;;21.31;59.24
20656;BME280;10487;53.320;8.672;2023-07-29T11:38:54;100327.22;;;21.41;58.79
20656;BME280;10487;53.320;8.672;2023-07-29T11:41:56;100331.63;;;21.42;58.84
20656;BME280;10487;53.320;8.672;2023-07-29T11:44:58;100329.81;;;21.49;58.98
20656;BME280;10487;53.320;8.672;2023-07-29T11:48:02;100321.72;;;21.56;58.65
20656;BME280;10487;53.320;8.672;2023-07-29T11:51:04;100330.31;;;21.59;58.81
20656;BME280;10487;53.320;8.672;2023-07-29T11:54:06;100335.28;;;21.56;58.33
20656;BME280;10487;53.320;8.672;2023-07-29T11:57:09;100334.56;;;21.47;58.27
20656;BME280;10487;53.320;8.672;2023-07-29T12:00:11;100336.38;;;21.40;58.22
20656;BME280;10487;53.320;8.672;2023-07-29T12:03:14;100339.50;;;21.37;58.52
20656;BME280;10487;53.320;8.672;2023-07-29T12:06:17;100337.16;;;21.34;58.31
20656;BME280;10487;53.320;8.672;2023-07-29T12:09:20;100334.06;;;21.37;58.42
20656;BME280;10487;53.320;8.672;2023-07-29T12:12:25;100338.69;;;21.43;58.43
20656;BME280;10487;53.320;8.672;2023-07-29T12:15:28;100336.84;;;21.44;58.16
20656;BME280;10487;53.320;8.672;2023-07-29T12:18:31;100339.75;;;21.42;57.99
20656;BME280;10487;53.320;8.672;2023-07-29T12:21:33;100346.84;;;21.43;58.27
20656;BME280;10487;53.320;8.672;2023-07-29T12:24:38;100349.75;;;21.42;57.88
20656;BME280;10487;53.320;8.672;2023-07-29T12:27:43;100337.78;;;21.36;57.89
20656;BME280;10487;53.320;8.672;2023-07-29T12:30:45;100345.69;;;21.31;58.19
20656;BME280;10487;53.320;8.672;2023-07-29T12:33:46;100339.78;;;21.27;58.05
20656;BME280;10487;53.320;8.672;2023-07-29T12:36:50;100334.94;;;21.23;57.97
20656;BME280;10487;53.320;8.672;2023-07-29T12:39:52;100338.22;;;21.18;57.99
20656;BME280;10487;53.320;8.672;2023-07-29T12:42:54;100348.22;;;21.18;57.95
20656;BME280;10487;53.320;8.672;2023-07-29T12:45:57;100325.19;;;21.28;58.16
20656;BME280;10487;53.320;8.672;2023-07-29T12:48:59;100324.97;;;21.45;57.99
20656;BME280;10487;53.320;8.672;2023-07-29T12:52:01;100329.91;;;21.62;57.92
20656;BME280;10487;53.320;8.672;2023-07-29T12:55:03;100331.16;;;21.81;57.91
20656;BME280;10487;53.320;8.672;2023-07-29T12:58:04;100332.78;;;21.96;57.59
20656;BME280;10487;53.320;8.672;2023-07-29T13:01:06;100329.97;;;22.11;57.45
20656;BME280;10487;53.320;8.672;2023-07-29T13:04:10;100326.25;;;22.19;57.44
20656;BME280;10487;53.320;8.672;2023-07-29T13:07:11;100329.84;;;22.26;57.34
20656;BME280;10487;53.320;8.672;2023-07-29T13:10:13;100332.84;;;22.37;57.18
20656;BME280;10487;53.320;8.672;2023-07-29T13:13:15;100317.03;;;22.41;57.35
20656;BME280;10487;53.320;8.672;2023-07-29T13:16:17;100322.81;;;22.38;56.80
20656;BME280;10487;53.320;8.672;2023-07-29T13:19:19;100324.13;;;22.42;56.84
20656;BME280;10487;53.320;8.672;2023-07-29T13:22:21;100316.84;;;22.49;57.29
20656;BME280;10487;53.320;8.672;2023-07-29T13:25:22;100318.97;;;22.53;57.07
20656;BME280;10487;53.320;8.672;2023-07-29T13:28:24;100322.34;;;22.62;57.13
20656;BME280;10487;53.320;8.672;2023-07-29T13:31:26;100322.41;;;22.69;56.98
20656;BME280;10487;53.320;8.672;2023-07-29T13:34:28;100319.94;;;22.74;56.37
20656;BME280;10487;53.320;8.672;2023-07-29T13:37:29;100324.09;;;22.76;56.63
20656;BME280;10487;53.320;8.672;2023-07-29T13:40:31;100325.16;;;22.75;56.29
20656;BME280;10487;53.320;8.672;2023-07-29T13:43:33;100319.03;;;22.67;56.48
20656;BME280;10487;53.320;8.672;2023-07-29T13:46:35;100307.25;;;22.53;56.55
20656;BME280;10487;53.320;8.672;2023-07-29T13:49:37;100298.88;;;22.48;56.31
20656;BME280;10487;53.320;8.672;2023-07-29T13:52:38;100298.22;;;22.46;56.67
20656;BME280;10487;53.320;8.672;2023-07-29T13:55:40;100302.84;;;22.52;56.51
20656;BME280;10487;53.320;8.672;2023-07-29T13:58:42;100306.69;;;22.64;56.52
20656;BME280;10487;53.320;8.672;2023-07-29T14:01:43;100305.25;;;22.75;56.55
20656;BME280;10487;53.320;8.672;2023-07-29T14:04:45;100299.03;;;22.81;56.40
20656;BME280;10487;53.320;8.672;2023-07-29T14:07:47;100299.44;;;22.78;56.15
20656;BME280;10487;53.320;8.672;2023-07-29T14:10:49;100308.38;;;22.72;55.84
20656;BME280;10487;53.320;8.672;2023-07-29T14:13:51;100311.47;;;22.62;55.75
20656;BME280;10487;53.320;8.672;2023-07-29T14:16:53;100313.94;;;22.50;56.20
20656;BME280;10487;53.320;8.672;2023-07-29T14:19:54;100354.44;;;22.39;55.73
20656;BME280;10487;53.320;8.672;2023-07-29T14:22:56;100357.94;;;22.12;55.67
20656;BME280;10487;53.320;8.672;2023-07-29T14:25:58;100372.06;;;21.79;55.97
20656;BME280;10487;53.320;8.672;2023-07-29T14:28:59;100356.69;;;21.44;56.25
20656;BME280;10487;53.320;8.672;2023-07-29T14:32:01;100361.16;;;21.16;56.58
20656;BME280;10487;53.320;8.672;2023-07-29T14:35:03;100370.88;;;20.96;56.57
20656;BME280;10487;53.320;8.672;2023-07-29T14:38:05;100367.63;;;20.86;56.83
20656;BME280;10487;53.320;8.672;2023-07-29T14:41:07;100363.25;;;20.85;56.74
20656;BME280;10487;53.320;8.672;2023-07-29T14:44:09;100358.56;;;20.79;56.58
20656;BME280;10487;53.320;8.672;2023-07-29T14:47:11;100347.44;;;20.73;56.70
20656;BME280;10487;53.320;8.672;2023-07-29T14:50:12;100343.81;;;20.66;56.69
20656;BME280;10487;53.320;8.672;2023-07-29T14:53:14;100349.97;;;20.60;56.85
20656;BME280;10487;53.320;8.672;2023-07-29T14:56:16;100350.72;;;20.54;56.73
20656;BME280;10487;53.320;8.672;2023-07-29T14:59:19;100361.06;;;20.51;56.65
20656;BME280;10487;53.320;8.672;2023-07-29T15:02:21;100365.19;;;20.47;56.72
20656;BME280;10487;53.320;8.672;2023-07-29T15:05:24;100360.31;;;20.42;56.86
20656;BME280;10487;53.320;8.672;2023-07-29T15:08:26;100367.78;;;20.40;57.00
20656;BME280;10487;53.320;8.672;2023-07-29T15:11:28;100362.53;;;20.39;56.94
20656;BME280;10487;53.320;8.672;2023-07-29T15:14:29;100359.38;;;20.35;57.06
20656;BME280;10487;53.320;8.672;2023-07-29T15:17:31;100362.44;;;20.32;56.89
20656;BME280;10487;53.320;8.672;2023-07-29T15:20:33;100374.00;;;20.26;56.93
20656;BME280;10487;53.320;8.672;2023-07-29T15:23:35;100403.50;;;20.21;56.94
20656;BME280;10487;53.320;8.672;2023-07-29T15:26:37;100403.69;;;20.05;56.86
20656;BME280;10487;53.320;8.672;2023-07-29T15:29:39;100401.28;;;19.87;57.10
20656;BME280;10487;53.320;8.672;2023-07-29T15:32:41;100391.88;;;19.75;56.88
20656;BME280;10487;53.320;8.672;2023-07-29T15:35:43;100385.84;;;19.65;57.11
20656;BME280;10487;53.320;8.672;2023-07-29T15:38:45;100385.84;;;19.65;57.13
20656;BME280;10487;53.320;8.672;2023-07-29T15:41:47;100389.22;;;19.67;57.30
20656;BME280;10487;53.320;8.672;2023-07-29T15:44:48;100383.16;;;19.65;57.16
20656;BME280;10487;53.320;8.672;2023-07-29T15:47:50;100379.94;;;19.62;57.07
20656;BME280;10487;53.320;8.672;2023-07-29T15:50:52;100374.22;;;19.57;57.08
20656;BME280;10487;53.320;8.672;2023-07-29T15:53:53;100387.28;;;19.53;57.12
20656;BME280;10487;53.320;8.672;2023-07-29T15:56:55;100384.28;;;19.48;57.31
20656;BME280;10487;53.320;8.672;2023-07-29T15:59:57;100388.53;;;19.42;57.43
20656;BME280;10487;53.320;8.672;2023-07-29T16:02:59;100380.13;;;19.37;57.10
20656;BME280;10487;53.320;8.672;2023-07-29T16:06:00;100387.94;;;19.32;57.43
20656;BME280;10487;53.320;8.672;2023-07-29T16:09:03;100373.25;;;19.27;57.37
20656;BME280;10487;53.320;8.672;2023-07-29T16:12:08;100394.56;;;19.22;57.43